sensor_id;sensor_type;location;lat;lon;timestamp;pressure;altitude;pressure_sealevel;temperature;humidity
10718;BME280;13513;42.700;23.124;2023-01-30T00:02:16;93143.56;;;0.24;100.00
10718;BME280;13513;42.700;23.124;2023-01-30T00:04:47;93141.09;;;0.26;100.00
10718;BME280;13513;42.700;23.124;2023-01-30T00:07:18;93133.08;;;0.32;100.00
10718;BME280;13513;42.700;23.124;2023-01-30T00:09:49;93137.92;;;0.35;100.00
10718;BME280;13513;42.700;23.124;2023-01-30T00:12:22;93134.28;;;0.40;100.00
10718;BME280;13513;42.700;23.124;2023-01-30T00:14:55;93134.77;;;0.54;100.00
10718;BME280;13513;42.700;23.124;2023-01-30T00:17:26;93132.58;;;0.47;100.00
10718;BME280;13513;42.700;23.124;2023-01-30T00:19:57;93132.02;;;0.41;100.00
10718;BME280;13513;42.700;23.124;2023-01-30T00:22:28;93128.63;;;0.26;100.00
10718;BME280;13513;42.700;23.124;2023-01-30T00:24:59;93134.65;;;0.22;100.00
10718;BME280;13513;42.700;23.124;2023-01-30T00:27:30;93132.36;;;0.23;100.00
10718;BME280;13513;42.700;23.124;2023-01-30T00:30:00;93130.75;;;0.22;100.00
10718;BME280;13513;42.700;23.124;2023-01-30T00:32:32;93127.55;;;0.20;100.00
10718;BME280;13513;42.700;23.124;2023-01-30T00:35:02;93131.88;;;0.09;100.00
10718;BME280;13513;42.700;23.124;2023-01-30T00:37:33;93131.16;;;0.00;100.00
10718;BME280;13513;42.700;23.124;2023-01-30T00:40:04;93127.86;;;0.07;100.00
10718;BME280;13513;42.700;23.124;2023-01-30T00:42:35;93124.00;;;0.03;100.00
10718;BME280;13513;42.700;23.124;2023-01-30T00:45:22;93131.38;;;0.09;100.00
10718;BME280;13513;42.700;23.124;2023-01-30T00:48:08;93128.03;;;0.05;100.00
10718;BME280;13513;42.700;23.124;2023-01-30T00:50:39;93120.80;;;0.11;99.44
10718;BME280;13513;42.700;23.124;2023-01-30T00:53:14;93122.44;;;0.12;98.73
10718;BME280;13513;42.700;23.124;2023-01-30T00:55:43;93121.00;;;0.24;98.70
10718;BME280;13513;42.700;23.124;2023-01-30T00:58:14;93119.58;;;0.22;99.04
10718;BME280;13513;42.700;23.124;2023-01-30T01:00:45;93115.85;;;0.20;99.07
10718;BME280;13513;42.700;23.124;2023-01-30T01:03:17;93113.38;;;0.23;99.25
10718;BME280;13513;42.700;23.124;2023-01-30T01:05:48;93114.22;;;0.19;98.76
10718;BME280;13513;42.700;23.124;2023-01-30T01:08:18;93112.49;;;0.01;98.32
10718;BME280;13513;42.700;23.124;2023-01-30T01:10:49;93107.86;;;0.07;98.46
10718;BME280;13513;42.700;23.124;2023-01-30T01:13:18;93110.89;;;0.00;98.37
10718;BME280;13513;42.700;23.124;2023-01-30T01:15:50;93111.16;;;-0.14;99.67
10718;BME280;13513;42.700;23.124;2023-01-30T01:18:21;93107.70;;;-0.06;99.79
10718;BME280;13513;42.700;23.124;2023-01-30T01:20:52;93099.86;;;-0.02;100.00
10718;BME280;13513;42.700;23.124;2023-01-30T01:23:24;93091.36;;;0.19;100.00
10718;BME280;13513;42.700;23.124;2023-01-30T01:25:55;93090.08;;;0.29;99.56
10718;BME280;13513;42.700;23.124;2023-01-30T01:28:26;93095.10;;;0.31;99.71
10718;BME280;13513;42.700;23.124;2023-01-30T01:30:56;93087.69;;;0.38;100.00
10718;BME280;13513;42.700;23.124;2023-01-30T01:33:28;93093.22;;;0.39;99.38
10718;BME280;13513;42.700;23.124;2023-01-30T01:35:58;93094.57;;;0.35;99.30
10718;BME280;13513;42.700;23.124;2023-01-30T01:38:28;93094.52;;;0.25;99.73
10718;BME280;13513;42.700;23.124;2023-01-30T01:40:59;93092.42;;;0.24;99.53
10718;BME280;13513;42.700;23.124;2023-01-30T01:43:32;93086.55;;;0.26;99.24
10718;BME280;13513;42.700;23.124;2023-01-30T01:46:11;93084.61;;;0.39;98.48
10718;BME280;13513;42.700;23.124;2023-01-30T01:48:43;93083.64;;;0.25;98.53
10718;BME280;13513;42.700;23.124;2023-01-30T01:54:05;93079.80;;;0.21;97.24
10718;BME280;13513;42.700;23.124;2023-01-30T01:56:35;93084.22;;;0.17;98.22
10718;BME280;13513;42.700;23.124;2023-01-30T01:59:12;93078.13;;;0.09;98.81
10718;BME280;13513;42.700;23.124;2023-01-30T02:01:41;93075.02;;;-0.01;98.62
10718;BME280;13513;42.700;23.124;2023-01-30T02:04:12;93078.78;;;-0.03;98.43
10718;BME280;13513;42.700;23.124;2023-01-30T02:06:43;93082.94;;;0.02;98.64
10718;BME280;13513;42.700;23.124;2023-01-30T02:09:13;93079.91;;;-0.02;98.29
10718;BME280;13513;42.700;23.124;2023-01-30T02:11:53;93082.85;;;-0.05;98.36
10718;BME280;13513;42.700;23.124;2023-01-30T02:14:23;93080.69;;;-0.01;98.95
10718;BME280;13513;42.700;23.124;2023-01-30T02:16:54;93078.09;;;-0.01;98.85
10718;BME280;13513;42.700;23.124;2023-01-30T02:28:07;93075.50;;;-0.16;99.40
10718;BME280;13513;42.700;23.124;2023-01-30T02:30:41;93072.64;;;-0.06;99.59
10718;BME280;13513;42.700;23.124;2023-01-30T02:33:25;93073.41;;;-0.02;99.23
10718;BME280;13513;42.700;23.124;2023-01-30T02:39:03;93068.92;;;-0.08;98.35
10718;BME280;13513;42.700;23.124;2023-01-30T02:41:51;93068.02;;;-0.15;98.41
10718;BME280;13513;42.700;23.124;2023-01-30T02:44:31;93072.78;;;-0.18;99.20
10718;BME280;13513;42.700;23.124;2023-01-30T02:47:09;93061.80;;;-0.39;100.00
10718;BME280;13513;42.700;23.124;2023-01-30T02:50:06;93062.83;;;-0.29;99.83
10718;BME280;13513;42.700;23.124;2023-01-30T02:52:34;93072.61;;;-0.35;99.82
10718;BME280;13513;42.700;23.124;2023-01-30T02:55:22;93069.92;;;-0.42;99.85
10718;BME280;13513;42.700;23.124;2023-01-30T02:57:53;93076.41;;;-0.42;100.00
10718;BME280;13513;42.700;23.124;2023-01-30T03:06:26;93076.78;;;-0.63;100.00
10718;BME280;13513;42.700;23.124;2023-01-30T03:09:05;93071.34;;;-0.54;100.00
10718;BME280;13513;42.700;23.124;2023-01-30T03:11:43;93075.16;;;-0.46;100.00
10718;BME280;13513;42.700;23.124;2023-01-30T03:14:19;93075.08;;;-0.38;100.00
10718;BME280;13513;42.700;23.124;2023-01-30T03:16:46;93070.02;;;-0.35;100.00
10718;BME280;13513;42.700;23.124;2023-01-30T03:19:17;93052.36;;;-0.36;100.00
10718;BME280;13513;42.700;23.124;2023-01-30T03:21:48;93058.17;;;-0.34;100.00
10718;BME280;13513;42.700;23.124;2023-01-30T03:24:19;93055.52;;;-0.44;100.00
10718;BME280;13513;42.700;23.124;2023-01-30T03:26:57;93050.55;;;-0.50;100.00
10718;BME280;13513;42.700;23.124;2023-01-30T03:29:23;93049.94;;;-0.52;100.00
10718;BME280;13513;42.700;23.124;2023-01-30T03:31:54;93039.60;;;-0.56;100.00
10718;BME280;13513;42.700;23.124;2023-01-30T03:34:25;93046.64;;;-0.64;100.00
10718;BME280;13513;42.700;23.124;2023-01-30T03:36:55;93038.09;;;-0.54;100.00
10718;BME280;13513;42.700;23.124;2023-01-30T03:39:26;93034.25;;;-0.58;100.00
10718;BME280;13513;42.700;23.124;2023-01-30T03:41:57;93034.16;;;-0.46;100.00
10718;BME280;13513;42.700;23.124;2023-01-30T03:44:31;93035.53;;;-0.40;100.00
10718;BME280;13513;42.700;23.124;2023-01-30T03:47:02;93034.41;;;-0.41;100.00
10718;BME280;13513;42.700;23.124;2023-01-30T03:49:33;93025.55;;;-0.47;100.00
10718;BME280;13513;42.700;23.124;2023-01-30T03:52:03;93031.05;;;-0.46;100.00
10718;BME280;13513;42.700;23.124;2023-01-30T03:54:32;93028.88;;;-0.57;100.00
10718;BME280;13513;42.700;23.124;2023-01-30T03:57:03;93025.98;;;-0.58;100.00
10718;BME280;13513;42.700;23.124;2023-01-30T03:59:34;93032.38;;;-0.64;100.00
10718;BME280;13513;42.700;23.124;2023-01-30T04:02:04;93031.81;;;-0.56;100.00
10718;BME280;13513;42.700;23.124;2023-01-30T04:04:35;93031.86;;;-0.60;100.00
10718;BME280;13513;42.700;23.124;2023-01-30T04:07:06;93025.68;;;-0.59;100.00
10718;BME280;13513;42.700;23.124;2023-01-30T04:09:37;93033.28;;;-0.57;100.00
10718;BME280;13513;42.700;23.124;2023-01-30T04:12:08;93024.73;;;-0.47;100.00
10718;BME280;13513;42.700;23.124;2023-01-30T04:14:39;93022.23;;;-0.41;100.00
10718;BME280;13513;42.700;23.124;2023-01-30T04:17:09;93017.46;;;-0.48;100.00
10718;BME280;13513;42.700;23.124;2023-01-30T04:19:40;93025.73;;;-0.48;100.00
10718;BME280;13513;42.700;23.124;2023-01-30T04:22:11;93017.46;;;-0.48;100.00
10718;BME280;13513;42.700;23.124;2023-01-30T04:24:42;93017.64;;;-0.49;100.00
10718;BME280;13513;42.700;23.124;2023-01-30T04:27:13;93027.88;;;-0.52;100.00
10718;BME280;13513;42.700;23.124;2023-01-30T04:29:44;93016.51;;;-0.65;100.00
10718;BME280;13513;42.700;23.124;2023-01-30T04:32:14;93018.37;;;-0.74;100.00
10718;BME280;13513;42.700;23.124;2023-01-30T04:34:45;93012.97;;;-0.68;100.00
10718;BME280;13513;42.700;23.124;2023-01-30T04:37:16;93016.25;;;-0.74;100.00
10718;BME280;13513;42.700;23.124;2023-01-30T04:39:47;93015.73;;;-0.70;100.00
10718;BME280;13513;42.700;23.124;2023-01-30T04:42:18;93010.25;;;-0.56;100.00
10718;BME280;13513;42.700;23.124;2023-01-30T04:44:49;93002.86;;;-0.63;100.00
10718;BME280;13513;42.700;23.124;2023-01-30T04:47:19;93011.75;;;-0.76;100.00
10718;BME280;13513;42.700;23.124;2023-01-30T04:49:50;93005.36;;;-0.70;100.00
10718;BME280;13513;42.700;23.124;2023-01-30T04:52:21;93000.12;;;-0.66;100.00
10718;BME280;13513;42.700;23.124;2023-01-30T04:54:52;93002.50;;;-0.60;100.00
10718;BME280;13513;42.700;23.124;2023-01-30T04:57:23;92993.16;;;-0.51;100.00
10718;BME280;13513;42.700;23.124;2023-01-30T04:59:54;92996.10;;;-0.39;100.00
10718;BME280;13513;42.700;23.124;2023-01-30T05:02:24;92993.11;;;-0.32;100.00
10718;BME280;13513;42.700;23.124;2023-01-30T05:04:57;92990.52;;;-0.47;100.00
10718;BME280;13513;42.700;23.124;2023-01-30T05:07:28;92981.34;;;-0.39;100.00
10718;BME280;13513;42.700;23.124;2023-01-30T05:09:59;92986.50;;;-0.49;100.00
10718;BME280;13513;42.700;23.124;2023-01-30T05:12:29;92986.64;;;-0.61;100.00
10718;BME280;13513;42.700;23.124;2023-01-30T05:15:03;92982.10;;;-0.63;100.00
10718;BME280;13513;42.700;23.124;2023-01-30T05:17:34;92987.29;;;-0.63;100.00
10718;BME280;13513;42.700;23.124;2023-01-30T05:20:07;92984.34;;;-0.60;100.00
10718;BME280;13513;42.700;23.124;2023-01-30T05:22:38;92987.94;;;-0.61;100.00
10718;BME280;13513;42.700;23.124;2023-01-30T05:25:09;92992.52;;;-0.67;100.00
10718;BME280;13513;42.700;23.124;2023-01-30T05:27:38;92992.98;;;-0.64;100.00
10718;BME280;13513;42.700;23.124;2023-01-30T05:30:11;92995.03;;;-0.59;100.00
10718;BME280;13513;42.700;23.124;2023-01-30T05:32:42;92992.56;;;-0.57;100.00
10718;BME280;13513;42.700;23.124;2023-01-30T05:35:13;92997.75;;;-0.57;100.00
10718;BME280;13513;42.700;23.124;2023-01-30T05:37:48;92994.81;;;-0.54;100.00
10718;BME280;13513;42.700;23.124;2023-01-30T05:40:15;92999.34;;;-0.52;100.00
10718;BME280;13513;42.700;23.124;2023-01-30T05:42:46;93005.32;;;-0.51;100.00
10718;BME280;13513;42.700;23.124;2023-01-30T05:45:17;93003.84;;;-0.50;100.00
10718;BME280;13513;42.700;23.124;2023-01-30T05:47:49;93000.22;;;-0.45;100.00
10718;BME280;13513;42.700;23.124;2023-01-30T05:50:20;93001.16;;;-0.42;100.00
10718;BME280;13513;42.700;23.124;2023-01-30T05:52:51;93000.38;;;-0.42;100.00
10718;BME280;13513;42.700;23.124;2023-01-30T05:55:22;92992.25;;;-0.43;100.00
10718;BME280;13513;42.700;23.124;2023-01-30T05:57:53;92998.00;;;-0.48;100.00
10718;BME280;13513;42.700;23.124;2023-01-30T06:00:24;93003.10;;;-0.40;100.00
10718;BME280;13513;42.700;23.124;2023-01-30T06:02:55;93004.87;;;-0.40;100.00
10718;BME280;13513;42.700;23.124;2023-01-30T06:05:26;93007.89;;;-0.33;100.00
10718;BME280;13513;42.700;23.124;2023-01-30T06:07:57;93003.31;;;-0.31;100.00
10718;BME280;13513;42.700;23.124;2023-01-30T06:10:27;93001.63;;;-0.38;100.00
10718;BME280;13513;42.700;23.124;2023-01-30T06:12:58;93003.19;;;-0.33;100.00
10718;BME280;13513;42.700;23.124;2023-01-30T06:15:29;93006.48;;;-0.39;100.00
10718;BME280;13513;42.700;23.124;2023-01-30T06:18:01;93005.48;;;-0.34;100.00
10718;BME280;13513;42.700;23.124;2023-01-30T06:20:31;93001.48;;;-0.26;100.00
10718;BME280;13513;42.700;23.124;2023-01-30T06:23:02;93000.98;;;-0.40;100.00
10718;BME280;13513;42.700;23.124;2023-01-30T06:25:33;92994.77;;;-0.21;100.00
10718;BME280;13513;42.700;23.124;2023-01-30T06:28:04;92989.25;;;-0.07;100.00
10718;BME280;13513;42.700;23.124;2023-01-30T06:30:35;92993.34;;;0.02;99.08
10718;BME280;13513;42.700;23.124;2023-01-30T06:33:05;92997.30;;;-0.02;98.51
10718;BME280;13513;42.700;23.124;2023-01-30T06:35:39;92994.23;;;0.09;98.47
10718;BME280;13513;42.700;23.124;2023-01-30T06:38:11;93001.62;;;0.16;98.62
10718;BME280;13513;42.700;23.124;2023-01-30T06:40:46;92999.97;;;0.04;99.24
10718;BME280;13513;42.700;23.124;2023-01-30T06:43:16;93003.16;;;0.21;99.04
10718;BME280;13513;42.700;23.124;2023-01-30T06:45:46;93003.23;;;0.28;98.32
10718;BME280;13513;42.700;23.124;2023-01-30T06:48:19;93001.34;;;0.36;97.29
10718;BME280;13513;42.700;23.124;2023-01-30T06:50:50;92999.64;;;0.29;97.40
10718;BME280;13513;42.700;23.124;2023-01-30T06:53:21;93005.00;;;0.42;97.67
10718;BME280;13513;42.700;23.124;2023-01-30T06:55:51;93005.17;;;0.40;96.39
10718;BME280;13513;42.700;23.124;2023-01-30T06:58:22;93010.67;;;0.31;95.57
10718;BME280;13513;42.700;23.124;2023-01-30T07:00:53;93003.75;;;0.13;95.88
10718;BME280;13513;42.700;23.124;2023-01-30T07:03:24;93013.79;;;-0.10;97.22
10718;BME280;13513;42.700;23.124;2023-01-30T07:05:58;93012.52;;;-0.14;98.37
10718;BME280;13513;42.700;23.124;2023-01-30T07:08:29;93014.40;;;-0.08;98.91
10718;BME280;13513;42.700;23.124;2023-01-30T07:10:59;93006.28;;;-0.19;99.18
10718;BME280;13513;42.700;23.124;2023-01-30T07:13:30;93011.85;;;-0.12;99.90
10718;BME280;13513;42.700;23.124;2023-01-30T07:16:02;93020.17;;;-0.16;99.86
10718;BME280;13513;42.700;23.124;2023-01-30T07:18:34;93014.14;;;-0.13;99.70
10718;BME280;13513;42.700;23.124;2023-01-30T07:21:05;93016.39;;;-0.10;99.78
10718;BME280;13513;42.700;23.124;2023-01-30T07:23:36;93017.89;;;-0.01;99.74
10718;BME280;13513;42.700;23.124;2023-01-30T07:26:07;93019.27;;;0.06;99.96
10718;BME280;13513;42.700;23.124;2023-01-30T07:28:38;93016.31;;;0.09;99.49
10718;BME280;13513;42.700;23.124;2023-01-30T07:31:08;93012.61;;;0.18;99.30
10718;BME280;13513;42.700;23.124;2023-01-30T07:33:39;93022.47;;;0.23;98.66
10718;BME280;13513;42.700;23.124;2023-01-30T07:36:10;93024.55;;;0.23;98.78
10718;BME280;13513;42.700;23.124;2023-01-30T07:38:41;93033.63;;;0.27;99.65
10718;BME280;13513;42.700;23.124;2023-01-30T07:41:12;93033.13;;;0.38;100.00
10718;BME280;13513;42.700;23.124;2023-01-30T07:43:43;93032.11;;;0.54;98.54
10718;BME280;13513;42.700;23.124;2023-01-30T07:46:13;93029.81;;;0.55;96.68
10718;BME280;13513;42.700;23.124;2023-01-30T07:48:46;93028.34;;;0.56;96.17
10718;BME280;13513;42.700;23.124;2023-01-30T07:51:17;93030.76;;;0.68;96.53
10718;BME280;13513;42.700;23.124;2023-01-30T07:53:51;93031.00;;;0.73;95.83
10718;BME280;13513;42.700;23.124;2023-01-30T07:56:22;93036.23;;;0.84;94.93
10718;BME280;13513;42.700;23.124;2023-01-30T07:58:54;93026.67;;;0.70;95.01
10718;BME280;13513;42.700;23.124;2023-01-30T08:01:25;93027.22;;;0.65;94.90
10718;BME280;13513;42.700;23.124;2023-01-30T08:03:55;93011.98;;;0.52;95.43
10718;BME280;13513;42.700;23.124;2023-01-30T08:06:25;93016.58;;;0.50;95.52
10718;BME280;13513;42.700;23.124;2023-01-30T08:08:55;93003.52;;;0.54;95.03
10718;BME280;13513;42.700;23.124;2023-01-30T08:11:25;92999.08;;;0.58;94.82
10718;BME280;13513;42.700;23.124;2023-01-30T08:13:56;92995.84;;;0.56;95.87
10718;BME280;13513;42.700;23.124;2023-01-30T08:16:27;93006.66;;;0.60;95.88
10718;BME280;13513;42.700;23.124;2023-01-30T08:18:59;93010.59;;;0.70;95.53
10718;BME280;13513;42.700;23.124;2023-01-30T08:21:30;93002.34;;;0.67;95.80
10718;BME280;13513;42.700;23.124;2023-01-30T08:24:00;92999.38;;;0.80;94.76
10718;BME280;13513;42.700;23.124;2023-01-30T08:26:29;93001.38;;;0.78;95.46
10718;BME280;13513;42.700;23.124;2023-01-30T08:29:00;92995.36;;;0.78;95.17
10718;BME280;13513;42.700;23.124;2023-01-30T08:31:31;92994.49;;;0.92;95.24
10718;BME280;13513;42.700;23.124;2023-01-30T08:34:01;92991.91;;;0.81;95.15
10718;BME280;13513;42.700;23.124;2023-01-30T08:36:32;92978.02;;;0.85;94.25
10718;BME280;13513;42.700;23.124;2023-01-30T08:39:02;92978.51;;;0.84;94.70
10718;BME280;13513;42.700;23.124;2023-01-30T08:41:32;92975.97;;;1.01;94.28
10718;BME280;13513;42.700;23.124;2023-01-30T08:44:04;92978.80;;;1.06;92.15
10718;BME280;13513;42.700;23.124;2023-01-30T08:46:35;92979.37;;;1.12;91.51
10718;BME280;13513;42.700;23.124;2023-01-30T08:49:08;92980.73;;;1.08;90.95
10718;BME280;13513;42.700;23.124;2023-01-30T08:51:40;92984.74;;;1.00;89.84
10718;BME280;13513;42.700;23.124;2023-01-30T08:54:11;92979.94;;;0.97;90.79
10718;BME280;13513;42.700;23.124;2023-01-30T08:56:43;92978.64;;;0.97;91.30
10718;BME280;13513;42.700;23.124;2023-01-30T08:59:12;92977.41;;;0.93;91.84
10718;BME280;13513;42.700;23.124;2023-01-30T09:01:43;92974.36;;;0.90;92.53
10718;BME280;13513;42.700;23.124;2023-01-30T09:04:14;92968.36;;;0.79;92.71
10718;BME280;13513;42.700;23.124;2023-01-30T09:06:45;92966.92;;;0.87;92.99
10718;BME280;13513;42.700;23.124;2023-01-30T09:09:16;92966.14;;;0.86;92.99
10718;BME280;13513;42.700;23.124;2023-01-30T09:11:46;92967.98;;;0.82;93.48
10718;BME280;13513;42.700;23.124;2023-01-30T09:14:17;92964.20;;;0.84;93.61
10718;BME280;13513;42.700;23.124;2023-01-30T09:16:49;92966.52;;;0.73;94.06
10718;BME280;13513;42.700;23.124;2023-01-30T09:19:26;92978.02;;;0.64;94.63
10718;BME280;13513;42.700;23.124;2023-01-30T09:21:57;92970.53;;;0.75;95.52
10718;BME280;13513;42.700;23.124;2023-01-30T09:24:27;92967.68;;;0.60;96.30
10718;BME280;13513;42.700;23.124;2023-01-30T09:26:57;92963.69;;;0.68;96.76
10718;BME280;13513;42.700;23.124;2023-01-30T09:29:28;92958.77;;;0.79;95.82
10718;BME280;13513;42.700;23.124;2023-01-30T09:31:58;92962.03;;;0.98;94.87
10718;BME280;13513;42.700;23.124;2023-01-30T09:34:31;92958.87;;;1.03;92.57
10718;BME280;13513;42.700;23.124;2023-01-30T09:37:03;92960.98;;;0.93;92.43
10718;BME280;13513;42.700;23.124;2023-01-30T09:39:33;92953.98;;;1.04;92.78
10718;BME280;13513;42.700;23.124;2023-01-30T09:45:09;92945.96;;;1.16;91.73
10718;BME280;13513;42.700;23.124;2023-01-30T09:50:54;92941.38;;;1.07;91.35
10718;BME280;13513;42.700;23.124;2023-01-30T09:56:19;92935.33;;;1.11;94.57
10718;BME280;13513;42.700;23.124;2023-01-30T09:59:01;92939.86;;;1.30;95.11
10718;BME280;13513;42.700;23.124;2023-01-30T10:07:31;92925.80;;;1.41;94.35
10718;BME280;13513;42.700;23.124;2023-01-30T10:10:27;92919.72;;;1.28;93.13
10718;BME280;13513;42.700;23.124;2023-01-30T10:16:00;92909.80;;;1.27;93.82
10718;BME280;13513;42.700;23.124;2023-01-30T10:18:50;92911.31;;;1.26;93.83
10718;BME280;13513;42.700;23.124;2023-01-30T10:21:26;92902.55;;;1.16;94.06
10718;BME280;13513;42.700;23.124;2023-01-30T10:24:18;92895.86;;;1.18;93.36
10718;BME280;13513;42.700;23.124;2023-01-30T10:26:46;92895.08;;;1.07;93.63
10718;BME280;13513;42.700;23.124;2023-01-30T10:29:25;92892.59;;;1.09;94.01
10718;BME280;13513;42.700;23.124;2023-01-30T10:32:14;92881.93;;;0.87;94.20
10718;BME280;13513;42.700;23.124;2023-01-30T10:34:48;92884.94;;;1.01;94.54
10718;BME280;13513;42.700;23.124;2023-01-30T10:41:06;92862.17;;;1.27;93.87
10718;BME280;13513;42.700;23.124;2023-01-30T10:43:17;92857.70;;;1.55;92.15
10718;BME280;13513;42.700;23.124;2023-01-30T10:54:16;92827.05;;;1.87;88.32
10718;BME280;13513;42.700;23.124;2023-01-30T10:57:01;92824.89;;;1.97;87.08
10718;BME280;13513;42.700;23.124;2023-01-30T11:02:31;92812.59;;;2.21;85.92
10718;BME280;13513;42.700;23.124;2023-01-30T11:05:01;92810.28;;;2.15;85.82
10718;BME280;13513;42.700;23.124;2023-01-30T11:07:32;92806.66;;;2.10;85.72
10718;BME280;13513;42.700;23.124;2023-01-30T11:10:13;92801.58;;;2.25;85.24
10718;BME280;13513;42.700;23.124;2023-01-30T11:12:35;92801.19;;;2.35;84.45
10718;BME280;13513;42.700;23.124;2023-01-30T11:15:06;92796.27;;;2.62;82.98
10718;BME280;13513;42.700;23.124;2023-01-30T11:17:39;92784.83;;;2.63;82.53
10718;BME280;13513;42.700;23.124;2023-01-30T11:20:17;92783.62;;;2.65;80.72
10718;BME280;13513;42.700;23.124;2023-01-30T11:23:03;92776.91;;;2.80;79.78
10718;BME280;13513;42.700;23.124;2023-01-30T11:25:30;92767.13;;;2.91;78.52
10718;BME280;13513;42.700;23.124;2023-01-30T11:28:04;92769.41;;;2.48;78.05
10718;BME280;13513;42.700;23.124;2023-01-30T11:30:35;92757.97;;;1.97;79.83
10718;BME280;13513;42.700;23.124;2023-01-30T11:33:13;92756.96;;;1.85;82.02
10718;BME280;13513;42.700;23.124;2023-01-30T11:35:54;92754.45;;;1.94;81.09
10718;BME280;13513;42.700;23.124;2023-01-30T11:38:29;92759.95;;;1.89;81.80
10718;BME280;13513;42.700;23.124;2023-01-30T11:43:41;92751.87;;;1.51;82.81
10718;BME280;13513;42.700;23.124;2023-01-30T11:46:15;92740.28;;;1.30;84.31
10718;BME280;13513;42.700;23.124;2023-01-30T11:48:54;92735.05;;;1.54;83.93
10718;BME280;13513;42.700;23.124;2023-01-30T11:51:26;92731.98;;;1.61;82.26
10718;BME280;13513;42.700;23.124;2023-01-30T11:54:04;92722.09;;;1.93;79.93
10718;BME280;13513;42.700;23.124;2023-01-30T11:56:54;92713.17;;;1.98;79.60
10718;BME280;13513;42.700;23.124;2023-01-30T11:59:30;92714.47;;;1.91;79.31
10718;BME280;13513;42.700;23.124;2023-01-30T12:02:25;92702.25;;;2.11;78.27
10718;BME280;13513;42.700;23.124;2023-01-30T12:04:59;92701.75;;;2.18;75.90
10718;BME280;13513;42.700;23.124;2023-01-30T12:07:35;92697.54;;;2.24;73.80
10718;BME280;13513;42.700;23.124;2023-01-30T12:10:26;92694.73;;;2.25;74.08
10718;BME280;13513;42.700;23.124;2023-01-30T12:13:01;92692.44;;;2.13;74.31
10718;BME280;13513;42.700;23.124;2023-01-30T12:15:32;92683.82;;;2.06;73.74
10718;BME280;13513;42.700;23.124;2023-01-30T12:18:29;92685.31;;;1.72;75.77
10718;BME280;13513;42.700;23.124;2023-01-30T12:21:00;92678.92;;;1.88;75.49
10718;BME280;13513;42.700;23.124;2023-01-30T12:24:12;92670.20;;;2.11;74.75
10718;BME280;13513;42.700;23.124;2023-01-30T12:26:40;92668.30;;;2.22;72.49
10718;BME280;13513;42.700;23.124;2023-01-30T12:29:16;92662.23;;;2.34;69.88
10718;BME280;13513;42.700;23.124;2023-01-30T12:34:33;92655.08;;;2.58;69.32
10718;BME280;13513;42.700;23.124;2023-01-30T12:37:19;92651.09;;;2.78;68.02
10718;BME280;13513;42.700;23.124;2023-01-30T12:45:23;92643.90;;;2.32;68.10
10718;BME280;13513;42.700;23.124;2023-01-30T12:56:20;92631.63;;;2.45;70.49
10718;BME280;13513;42.700;23.124;2023-01-30T12:59:12;92630.91;;;2.06;74.04
10718;BME280;13513;42.700;23.124;2023-01-30T13:04:40;92623.91;;;1.87;74.04
10718;BME280;13513;42.700;23.124;2023-01-30T13:07:33;92622.70;;;2.02;72.49
10718;BME280;13513;42.700;23.124;2023-01-30T13:10:12;92625.16;;;2.32;73.47
10718;BME280;13513;42.700;23.124;2023-01-30T13:12:50;92625.41;;;2.53;71.29
10718;BME280;13513;42.700;23.124;2023-01-30T13:15:29;92622.87;;;2.62;68.78
10718;BME280;13513;42.700;23.124;2023-01-30T13:18:13;92617.45;;;2.63;69.06
10718;BME280;13513;42.700;23.124;2023-01-30T13:23:33;92620.40;;;2.73;68.28
10718;BME280;13513;42.700;23.124;2023-01-30T13:26:05;92607.52;;;2.85;69.17
10718;BME280;13513;42.700;23.124;2023-01-30T13:28:42;92606.96;;;2.98;69.22
10718;BME280;13513;42.700;23.124;2023-01-30T13:31:13;92604.92;;;3.00;68.39
10718;BME280;13513;42.700;23.124;2023-01-30T13:33:46;92595.70;;;3.20;68.15
10718;BME280;13513;42.700;23.124;2023-01-30T13:39:03;92594.72;;;3.14;66.26
10718;BME280;13513;42.700;23.124;2023-01-30T13:41:35;92590.70;;;2.96;66.07
10718;BME280;13513;42.700;23.124;2023-01-30T13:44:08;92580.95;;;3.01;65.46
10718;BME280;13513;42.700;23.124;2023-01-30T13:46:40;92578.55;;;2.99;67.24
10718;BME280;13513;42.700;23.124;2023-01-30T13:49:39;92582.81;;;3.09;67.40
10718;BME280;13513;42.700;23.124;2023-01-30T13:55:01;92576.50;;;3.08;65.18
10718;BME280;13513;42.700;23.124;2023-01-30T13:57:40;92579.69;;;2.72;67.99
10718;BME280;13513;42.700;23.124;2023-01-30T14:00:15;92576.47;;;2.77;67.24
10718;BME280;13513;42.700;23.124;2023-01-30T14:03:13;92578.59;;;2.71;70.58
10718;BME280;13513;42.700;23.124;2023-01-30T14:05:10;92575.41;;;2.69;69.26
10718;BME280;13513;42.700;23.124;2023-01-30T14:07:42;92573.80;;;2.46;69.74
10718;BME280;13513;42.700;23.124;2023-01-30T14:10:14;92577.82;;;2.42;71.03
10718;BME280;13513;42.700;23.124;2023-01-30T14:12:52;92584.36;;;2.35;71.94
10718;BME280;13513;42.700;23.124;2023-01-30T14:15:27;92581.77;;;2.22;73.28
10718;BME280;13513;42.700;23.124;2023-01-30T14:18:06;92586.05;;;1.97;74.63
10718;BME280;13513;42.700;23.124;2023-01-30T14:20:45;92593.03;;;2.16;73.79
10718;BME280;13513;42.700;23.124;2023-01-30T14:23:20;92592.87;;;2.33;73.59
10718;BME280;13513;42.700;23.124;2023-01-30T14:25:54;92578.60;;;2.07;74.72
10718;BME280;13513;42.700;23.124;2023-01-30T14:31:01;92584.46;;;1.83;75.95
10718;BME280;13513;42.700;23.124;2023-01-30T14:33:46;92585.18;;;1.81;77.82
10718;BME280;13513;42.700;23.124;2023-01-30T14:38:46;92581.97;;;1.79;78.02
10718;BME280;13513;42.700;23.124;2023-01-30T14:41:27;92573.86;;;1.59;78.62
10718;BME280;13513;42.700;23.124;2023-01-30T14:43:57;92571.15;;;1.69;78.68
10718;BME280;13513;42.700;23.124;2023-01-30T14:46:38;92568.36;;;1.64;77.34
10718;BME280;13513;42.700;23.124;2023-01-30T14:49:20;92565.84;;;1.67;78.57
10718;BME280;13513;42.700;23.124;2023-01-30T14:51:47;92563.24;;;1.67;79.65
10718;BME280;13513;42.700;23.124;2023-01-30T14:54:29;92555.65;;;1.72;77.98